createdAt,value
2019-05-30T00:00:19.910Z,24.74
2019-05-30T00:01:19.557Z,24.71
2019-05-30T00:02:19.156Z,24.71
2019-05-30T00:03:18.842Z,24.71
2019-05-30T00:04:18.514Z,24.70
2019-05-30T00:05:17.965Z,24.70
2019-05-30T00:06:17.490Z,24.70
2019-05-30T00:07:17.056Z,24.69
2019-05-30T00:08:16.772Z,24.70
2019-05-30T00:09:16.271Z,24.69
2019-05-30T00:10:15.983Z,24.68
2019-05-30T00:11:15.498Z,24.69
2019-05-30T00:12:15.090Z,24.69
2019-05-30T00:13:14.783Z,24.69
2019-05-30T00:14:14.381Z,24.67
2019-05-30T00:15:13.886Z,24.67
2019-05-30T00:16:13.444Z,24.69
2019-05-30T00:17:13.007Z,24.68
2019-05-30T00:18:12.555Z,24.67
2019-05-30T00:19:12.118Z,24.64
2019-05-30T00:20:11.751Z,24.65
2019-05-30T00:21:11.381Z,24.67
2019-05-30T00:22:10.996Z,24.65
2019-05-30T00:23:13.564Z,24.65
2019-05-30T00:24:12.377Z,24.66
2019-05-30T00:25:11.936Z,24.65
2019-05-30T00:26:11.530Z,24.66
2019-05-30T00:27:11.200Z,24.66
2019-05-30T00:28:10.810Z,24.64
2019-05-30T00:29:10.330Z,24.64
2019-05-30T00:30:23.813Z,24.63
2019-05-30T00:31:09.555Z,24.63
2019-05-30T00:32:09.080Z,24.64
2019-05-30T00:33:08.678Z,24.62
2019-05-30T00:34:08.289Z,24.62
2019-05-30T00:35:07.990Z,24.62
2019-05-30T00:36:07.527Z,24.62
2019-05-30T00:37:07.031Z,24.61
2019-05-30T00:38:06.621Z,24.62
2019-05-30T00:39:06.637Z,24.61
2019-05-30T00:40:06.155Z,24.61
2019-05-30T00:41:06.199Z,24.61
2019-05-30T00:42:06.170Z,24.60
2019-05-30T00:43:04.711Z,24.61
2019-05-30T00:44:04.430Z,24.61
2019-05-30T00:45:18.166Z,24.62
2019-05-30T00:46:04.208Z,24.61
2019-05-30T00:47:04.320Z,24.60
2019-05-30T00:48:02.561Z,24.57
2019-05-30T00:49:02.523Z,24.58
2019-05-30T00:50:02.730Z,24.58
2019-05-30T00:51:02.582Z,24.55
2019-05-30T00:52:00.921Z,24.56
2019-05-30T00:53:00.780Z,24.56
2019-05-30T00:54:00.695Z,24.56
2019-05-30T00:55:00.666Z,24.55
2019-05-30T00:56:01.366Z,24.55
2019-05-30T00:56:58.937Z,24.55
2019-05-30T00:57:58.575Z,24.56
2019-05-30T00:58:58.703Z,24.55
2019-05-30T00:59:58.751Z,24.54
2019-05-30T01:00:57.192Z,24.56
2019-05-30T01:01:56.704Z,24.54
2019-05-30T01:03:00.969Z,24.54
2019-05-30T01:03:56.720Z,24.53
2019-05-30T01:04:56.877Z,24.53
2019-05-30T01:05:55.039Z,24.54
2019-05-30T01:06:54.615Z,24.53
2019-05-30T01:07:54.035Z,24.52
2019-05-30T01:08:53.783Z,24.50
2019-05-30T01:09:53.412Z,24.51
2019-05-30T01:10:52.968Z,24.50
2019-05-30T01:11:52.521Z,24.50
2019-05-30T01:12:52.033Z,24.49
2019-05-30T01:13:51.659Z,24.48
2019-05-30T01:14:51.164Z,24.47
2019-05-30T01:15:50.793Z,24.49
2019-05-30T01:16:50.371Z,24.48
2019-05-30T01:17:49.775Z,24.46
2019-05-30T01:18:52.409Z,24.46
2019-05-30T01:19:51.171Z,24.47
2019-05-30T01:20:50.805Z,24.44
2019-05-30T01:21:50.329Z,24.45
2019-05-30T01:22:49.931Z,24.46
2019-05-30T01:23:49.476Z,24.47
2019-05-30T01:24:49.151Z,24.47
2019-05-30T01:25:48.696Z,24.47
2019-05-30T01:26:48.241Z,24.47
2019-05-30T01:27:47.824Z,24.46
2019-05-30T01:28:47.415Z,24.46
2019-05-30T01:29:47.003Z,24.46
2019-05-30T01:30:59.509Z,24.45
2019-05-30T01:31:46.215Z,24.43
2019-05-30T01:32:45.817Z,24.44
2019-05-30T01:33:45.382Z,24.44
2019-05-30T01:34:45.016Z,24.44
2019-05-30T01:35:44.570Z,24.42
2019-05-30T01:36:44.125Z,24.43
2019-05-30T01:37:43.749Z,24.43
2019-05-30T01:38:43.261Z,24.43
2019-05-30T01:39:42.802Z,24.39
2019-05-30T01:40:42.427Z,24.41
2019-05-30T01:41:41.947Z,24.41
2019-05-30T01:42:41.546Z,24.41
2019-05-30T01:43:41.121Z,24.41
2019-05-30T01:44:40.747Z,24.41
2019-05-30T01:45:40.389Z,24.42
2019-05-30T01:46:39.998Z,24.41
2019-05-30T01:47:39.568Z,24.40
2019-05-30T01:48:39.148Z,24.39
2019-05-30T01:49:38.750Z,24.40
2019-05-30T01:50:38.422Z,24.41
2019-05-30T01:51:37.938Z,24.41
2019-05-30T01:52:37.551Z,24.37
2019-05-30T01:53:37.140Z,24.39
2019-05-30T01:54:36.728Z,24.39
2019-05-30T01:55:36.331Z,24.39
2019-05-30T01:56:38.876Z,24.38
2019-05-30T01:57:37.644Z,24.40
2019-05-30T01:58:37.309Z,24.39
2019-05-30T01:59:36.898Z,24.38
2019-05-30T02:00:36.455Z,24.38
2019-05-30T02:01:35.997Z,24.35
2019-05-30T02:02:35.544Z,24.35
2019-05-30T02:03:35.204Z,24.35
2019-05-30T02:04:34.788Z,24.34
2019-05-30T02:05:34.327Z,24.37
2019-05-30T02:06:37.739Z,24.36
2019-05-30T02:07:33.439Z,24.37
2019-05-30T02:08:33.044Z,24.36
2019-05-30T02:09:32.534Z,24.35
2019-05-30T02:10:32.155Z,24.35
2019-05-30T02:11:31.685Z,24.34
2019-05-30T02:12:31.212Z,24.36
2019-05-30T02:13:30.816Z,24.34
2019-05-30T02:14:30.414Z,24.32
2019-05-30T02:15:29.965Z,24.35
2019-05-30T02:16:29.511Z,24.35
2019-05-30T02:17:29.161Z,24.35
2019-05-30T02:18:28.738Z,24.34
2019-05-30T02:19:28.277Z,24.33
2019-05-30T02:20:27.902Z,24.31
2019-05-30T02:21:27.417Z,24.32
2019-05-30T02:22:26.960Z,24.31
2019-05-30T02:23:26.514Z,24.30
2019-05-30T02:24:26.099Z,24.31
2019-05-30T02:25:25.683Z,24.30
2019-05-30T02:26:25.228Z,24.30
2019-05-30T02:27:24.818Z,24.31
2019-05-30T02:28:24.375Z,24.28
2019-05-30T02:29:23.965Z,24.28
2019-05-30T02:30:23.527Z,24.27
2019-05-30T02:31:38.279Z,24.30
2019-05-30T02:32:22.737Z,24.27
2019-05-30T02:33:22.270Z,24.27
2019-05-30T02:34:22.060Z,24.27
2019-05-30T02:35:21.494Z,24.27
2019-05-30T02:36:21.108Z,24.26
2019-05-30T02:37:20.604Z,24.26
2019-05-30T02:38:20.185Z,24.26
2019-05-30T02:39:19.735Z,24.25
2019-05-30T02:40:19.286Z,24.26
2019-05-30T02:41:18.815Z,24.26
2019-05-30T02:42:18.399Z,24.23
2019-05-30T02:43:17.959Z,24.24
2019-05-30T02:44:17.509Z,24.23
2019-05-30T02:45:17.147Z,24.24
2019-05-30T02:46:16.784Z,24.22
2019-05-30T02:47:16.294Z,24.23
2019-05-30T02:48:15.821Z,24.23
2019-05-30T02:49:15.410Z,24.23
2019-05-30T02:50:14.955Z,24.26
2019-05-30T02:51:14.531Z,24.24
2019-05-30T02:52:14.139Z,24.23
2019-05-30T02:53:13.766Z,24.22
2019-05-30T02:54:13.534Z,24.22
2019-05-30T02:55:13.719Z,24.22
2019-05-30T02:56:12.842Z,24.22
2019-05-30T02:57:12.677Z,24.21
2019-05-30T02:58:12.860Z,24.21
2019-05-30T02:59:13.385Z,24.20
2019-05-30T03:00:15.660Z,24.20
2019-05-30T03:01:11.949Z,24.19
2019-05-30T03:02:15.206Z,24.19
2019-05-30T03:03:12.328Z,24.18
2019-05-30T03:04:10.927Z,24.18
2019-05-30T03:05:11.797Z,24.20
2019-05-30T03:06:09.187Z,24.16
2019-05-30T03:07:09.031Z,24.18
2019-05-30T03:08:09.783Z,24.17
2019-05-30T03:09:08.464Z,24.18
2019-05-30T03:10:07.670Z,24.18
2019-05-30T03:11:09.347Z,24.16
2019-05-30T03:12:06.963Z,24.16
2019-05-30T03:13:06.454Z,24.17
2019-05-30T03:14:07.030Z,24.17
2019-05-30T03:15:05.280Z,24.15
2019-05-30T03:16:05.054Z,24.16
2019-05-30T03:17:05.314Z,24.15
2019-05-30T03:18:04.668Z,24.16
2019-05-30T03:19:03.829Z,24.15
2019-05-30T03:20:10.024Z,24.15
2019-05-30T03:21:03.273Z,24.14
2019-05-30T03:22:03.427Z,24.16
2019-05-30T03:23:03.216Z,24.14
2019-05-30T03:24:02.533Z,24.13
2019-05-30T03:25:02.776Z,24.12
2019-05-30T03:26:00.050Z,24.09
2019-05-30T03:26:59.632Z,24.10
2019-05-30T03:27:59.217Z,24.11
2019-05-30T03:28:58.839Z,24.09
2019-05-30T03:29:58.349Z,24.09
2019-05-30T03:30:57.980Z,24.11
2019-05-30T03:31:57.535Z,24.10
2019-05-30T03:33:06.733Z,24.09
2019-05-30T03:33:56.656Z,24.09
2019-05-30T03:34:56.211Z,24.08
2019-05-30T03:35:55.843Z,24.09
2019-05-30T03:36:55.404Z,24.08
2019-05-30T03:37:54.800Z,24.07
2019-05-30T03:38:54.475Z,24.08
2019-05-30T03:39:54.170Z,24.05
2019-05-30T03:40:53.718Z,24.08
2019-05-30T03:41:53.216Z,24.07
2019-05-30T03:42:52.795Z,24.03
2019-05-30T03:43:52.327Z,24.06
2019-05-30T03:44:51.889Z,24.04
2019-05-30T03:45:51.471Z,24.07
2019-05-30T03:46:51.055Z,24.06
2019-05-30T03:47:50.591Z,24.04
2019-05-30T03:48:50.138Z,24.05
2019-05-30T03:49:49.657Z,24.05
2019-05-30T03:50:49.209Z,24.06
2019-05-30T03:51:48.796Z,24.07
2019-05-30T03:52:48.337Z,24.07
2019-05-30T03:53:47.850Z,24.05
2019-05-30T03:54:47.426Z,24.05
2019-05-30T03:55:46.975Z,24.04
2019-05-30T03:56:46.651Z,24.05
2019-05-30T03:57:46.159Z,24.05
2019-05-30T03:58:45.678Z,24.03
2019-05-30T03:59:48.260Z,24.02
2019-05-30T04:00:50.915Z,24.03
2019-05-30T04:01:46.706Z,24.03
2019-05-30T04:02:57.702Z,24.04
2019-05-30T04:03:48.609Z,24.02
2019-05-30T04:04:47.502Z,24.03
2019-05-30T04:05:46.866Z,24.01
2019-05-30T04:06:46.564Z,24.01
2019-05-30T04:07:46.133Z,24.00
2019-05-30T04:08:45.779Z,24.01
2019-05-30T04:09:45.395Z,24.00
2019-05-30T04:10:44.990Z,24.00
2019-05-30T04:11:44.555Z,24.00
2019-05-30T04:12:44.174Z,24.00
2019-05-30T04:13:43.743Z,24.00
2019-05-30T04:14:43.342Z,24.00
2019-05-30T04:15:42.902Z,23.99
2019-05-30T04:16:42.622Z,24.00
2019-05-30T04:17:42.166Z,23.99
2019-05-30T04:18:41.708Z,23.99
2019-05-30T04:19:41.308Z,23.99
2019-05-30T04:20:40.935Z,24.00
2019-05-30T04:21:40.626Z,24.00
2019-05-30T04:22:40.254Z,23.99
2019-05-30T04:23:39.787Z,23.97
2019-05-30T04:24:39.343Z,23.99
2019-05-30T04:25:38.896Z,23.99
2019-05-30T04:26:38.531Z,23.99
2019-05-30T04:27:38.086Z,23.99
2019-05-30T04:28:37.612Z,23.97
2019-05-30T04:29:37.240Z,23.97
2019-05-30T04:30:36.825Z,23.97
2019-05-30T04:31:36.489Z,23.98
2019-05-30T04:32:36.041Z,23.97
2019-05-30T04:33:35.598Z,23.97
2019-05-30T04:34:35.316Z,23.98
2019-05-30T04:35:34.831Z,23.97
2019-05-30T04:36:34.478Z,23.98
2019-05-30T04:37:34.076Z,23.97
2019-05-30T04:38:33.580Z,23.99
2019-05-30T04:39:33.235Z,23.98
2019-05-30T04:40:32.813Z,24.00
2019-05-30T04:41:32.395Z,23.99
2019-05-30T04:42:31.888Z,23.99
2019-05-30T04:43:31.470Z,23.98
2019-05-30T04:44:31.029Z,23.98
2019-05-30T04:45:30.671Z,23.98
2019-05-30T04:46:30.237Z,23.97
2019-05-30T04:47:29.804Z,23.96
2019-05-30T04:48:29.376Z,23.96
2019-05-30T04:49:28.980Z,23.96
2019-05-30T04:50:28.553Z,23.94
2019-05-30T04:51:28.030Z,23.95
2019-05-30T04:52:27.683Z,23.93
2019-05-30T04:53:27.251Z,23.91
2019-05-30T04:54:26.783Z,23.94
2019-05-30T04:55:26.465Z,23.94
2019-05-30T04:56:25.980Z,23.93
2019-05-30T04:57:27.182Z,23.93
2019-05-30T04:58:25.201Z,23.92
2019-05-30T04:59:27.777Z,23.91
2019-05-30T05:00:26.618Z,23.92
2019-05-30T05:01:26.121Z,23.91
2019-05-30T05:02:25.850Z,23.93
2019-05-30T05:03:44.532Z,23.93
2019-05-30T05:04:27.175Z,23.92
2019-05-30T05:05:27.180Z,23.93
2019-05-30T05:06:26.459Z,23.92
2019-05-30T05:07:28.989Z,23.92
2019-05-30T05:08:27.827Z,23.92
2019-05-30T05:09:27.357Z,23.91
2019-05-30T05:10:26.921Z,23.92
2019-05-30T05:11:26.318Z,23.92
2019-05-30T05:12:26.005Z,23.90
2019-05-30T05:13:25.388Z,23.95
2019-05-30T05:14:24.940Z,23.94
2019-05-30T05:15:24.448Z,23.93
2019-05-30T05:16:34.767Z,23.92
2019-05-30T05:17:23.711Z,23.91
2019-05-30T05:18:23.416Z,23.91
2019-05-30T05:19:25.720Z,23.93
2019-05-30T05:20:23.491Z,23.92
2019-05-30T05:21:22.883Z,23.93
2019-05-30T05:22:21.230Z,23.95
2019-05-30T05:23:21.348Z,23.92
2019-05-30T05:24:21.466Z,23.93
2019-05-30T05:25:19.814Z,23.92
2019-05-30T05:26:19.549Z,23.93
2019-05-30T05:27:19.671Z,23.93
2019-05-30T05:28:18.296Z,23.93
2019-05-30T05:29:18.009Z,23.95
2019-05-30T05:30:17.981Z,23.91
2019-05-30T05:31:16.816Z,23.93
2019-05-30T05:32:16.285Z,23.93
2019-05-30T05:33:16.663Z,23.93
2019-05-30T05:34:16.569Z,23.96
2019-05-30T05:35:14.892Z,23.95
2019-05-30T05:36:14.876Z,23.93
2019-05-30T05:37:14.908Z,23.93
2019-05-30T05:38:13.424Z,23.95
2019-05-30T05:39:12.926Z,23.94
2019-05-30T05:40:12.441Z,23.95
2019-05-30T05:41:11.917Z,23.94
2019-05-30T05:42:11.443Z,23.95
2019-05-30T05:43:10.925Z,23.95
2019-05-30T05:44:10.432Z,23.95
2019-05-30T05:45:09.935Z,23.95
2019-05-30T05:46:09.377Z,23.95
2019-05-30T05:47:08.914Z,23.95
2019-05-30T05:48:08.391Z,23.95
2019-05-30T05:49:07.906Z,23.95
2019-05-30T05:50:07.378Z,23.96
2019-05-30T05:51:06.913Z,23.97
2019-05-30T05:52:06.375Z,23.97
2019-05-30T05:53:05.910Z,23.97
2019-05-30T05:54:05.389Z,23.97
2019-05-30T05:55:04.877Z,23.98
2019-05-30T05:56:04.382Z,23.98
2019-05-30T05:57:06.818Z,23.98
2019-05-30T05:58:05.525Z,23.99
2019-05-30T05:59:05.023Z,23.98
2019-05-30T06:00:04.498Z,23.97
2019-05-30T06:01:04.009Z,23.98
2019-05-30T06:02:03.523Z,23.99
2019-05-30T06:03:03.079Z,23.97
2019-05-30T06:04:12.490Z,24.00
2019-05-30T06:05:02.148Z,24.00
2019-05-30T06:06:01.668Z,24.00
2019-05-30T06:07:01.179Z,24.00
2019-05-30T06:08:00.625Z,23.98
2019-05-30T06:09:00.207Z,23.99
2019-05-30T06:09:59.709Z,23.98
2019-05-30T06:10:59.226Z,24.00
2019-05-30T06:11:58.675Z,24.00
2019-05-30T06:12:58.215Z,24.00
2019-05-30T06:13:57.708Z,24.01
2019-05-30T06:14:57.181Z,24.01
2019-05-30T06:15:56.654Z,24.02
2019-05-30T06:16:56.258Z,24.01
2019-05-30T06:17:55.661Z,24.02
2019-05-30T06:18:55.217Z,24.04
2019-05-30T06:19:54.668Z,24.04
2019-05-30T06:20:54.196Z,24.04
2019-05-30T06:21:54.647Z,24.05
2019-05-30T06:22:53.454Z,24.04
2019-05-30T06:23:52.844Z,24.04
2019-05-30T06:24:52.574Z,24.05
2019-05-30T06:25:51.909Z,24.03
2019-05-30T06:26:52.071Z,24.02
2019-05-30T06:27:51.873Z,24.00
2019-05-30T06:28:51.237Z,24.02
2019-05-30T06:29:50.800Z,24.01
2019-05-30T06:30:50.378Z,23.99
2019-05-30T06:31:49.950Z,24.00
2019-05-30T06:32:49.528Z,24.00
2019-05-30T06:33:49.089Z,24.01
2019-05-30T06:34:48.683Z,24.00
2019-05-30T06:35:48.267Z,24.00
2019-05-30T06:36:47.858Z,24.00
2019-05-30T06:37:47.440Z,24.02
2019-05-30T06:38:46.985Z,24.03
2019-05-30T06:39:46.571Z,24.03
2019-05-30T06:40:46.106Z,24.03
2019-05-30T06:41:45.647Z,24.02
2019-05-30T06:42:45.273Z,24.04
2019-05-30T06:43:44.822Z,24.04
2019-05-30T06:44:44.402Z,24.04
2019-05-30T06:45:44.001Z,24.03
2019-05-30T06:46:43.602Z,24.03
2019-05-30T06:47:43.164Z,24.04
2019-05-30T06:48:42.816Z,24.05
2019-05-30T06:49:42.211Z,24.05
2019-05-30T06:50:41.856Z,24.02
2019-05-30T06:51:41.386Z,24.04
2019-05-30T06:52:41.024Z,24.04
2019-05-30T06:53:40.613Z,24.05
2019-05-30T06:54:40.139Z,24.04
2019-05-30T06:55:39.564Z,24.04
2019-05-30T06:56:39.302Z,24.04
2019-05-30T06:57:38.884Z,24.05
2019-05-30T06:58:47.892Z,24.07
2019-05-30T06:59:37.911Z,24.04
2019-05-30T07:00:37.454Z,24.12
2019-05-30T07:01:37.030Z,24.14
2019-05-30T07:02:36.529Z,24.19
2019-05-30T07:03:36.012Z,24.23
2019-05-30T07:04:50.956Z,24.28
2019-05-30T07:05:35.870Z,24.32
2019-05-30T07:06:34.940Z,24.34
2019-05-30T07:07:34.296Z,24.37
2019-05-30T07:08:33.772Z,24.38
2019-05-30T07:09:33.368Z,24.42
2019-05-30T07:10:33.191Z,24.42
2019-05-30T07:11:33.099Z,24.45
2019-05-30T07:12:33.203Z,24.50
2019-05-30T07:13:31.813Z,24.52
2019-05-30T07:14:31.512Z,24.54
2019-05-30T07:15:31.430Z,24.53
2019-05-30T07:16:31.496Z,24.48
2019-05-30T07:17:31.474Z,24.41
2019-05-30T07:18:33.733Z,24.41
2019-05-30T07:19:29.548Z,24.41
2019-05-30T07:20:29.661Z,24.43
2019-05-30T07:21:29.688Z,24.46
2019-05-30T07:22:28.007Z,24.51
2019-05-30T07:23:27.905Z,24.54
2019-05-30T07:24:27.784Z,24.56
2019-05-30T07:25:27.865Z,24.60
2019-05-30T07:26:26.279Z,24.60
2019-05-30T07:27:26.186Z,24.60
2019-05-30T07:28:25.840Z,24.61
2019-05-30T07:29:25.799Z,24.57
2019-05-30T07:30:24.453Z,24.50
2019-05-30T07:31:24.139Z,24.48
2019-05-30T07:32:24.031Z,24.49
2019-05-30T07:33:23.933Z,24.49
2019-05-30T07:34:22.462Z,24.48
2019-05-30T07:35:22.223Z,24.50
2019-05-30T07:36:21.609Z,24.48
2019-05-30T07:37:21.110Z,24.46
2019-05-30T07:38:20.628Z,24.45
2019-05-30T07:39:26.387Z,24.44
2019-05-30T07:40:21.923Z,24.42
2019-05-30T07:41:21.647Z,24.43
2019-05-30T07:42:21.006Z,24.43
2019-05-30T07:43:20.684Z,24.41
2019-05-30T07:44:20.116Z,24.39
2019-05-30T07:45:19.617Z,24.35
2019-05-30T07:46:19.037Z,24.36
2019-05-30T07:47:18.811Z,24.37
2019-05-30T07:48:18.475Z,24.36
2019-05-30T07:49:18.095Z,24.38
2019-05-30T07:50:17.809Z,24.37
2019-05-30T07:51:17.151Z,24.39
2019-05-30T07:52:16.771Z,24.39
2019-05-30T07:53:16.433Z,24.36
2019-05-30T07:54:16.056Z,24.35
2019-05-30T07:55:15.419Z,24.34
2019-05-30T07:56:15.003Z,24.35
2019-05-30T07:57:14.527Z,24.37
2019-05-30T07:58:14.192Z,24.36
2019-05-30T07:59:13.594Z,24.35
2019-05-30T08:00:13.249Z,24.33
2019-05-30T08:01:12.754Z,24.35
2019-05-30T08:02:12.283Z,24.34
2019-05-30T08:03:11.813Z,24.35
2019-05-30T08:04:11.284Z,24.33
2019-05-30T08:05:23.405Z,24.32
2019-05-30T08:06:10.348Z,24.33
2019-05-30T08:07:09.808Z,24.34
2019-05-30T08:08:09.327Z,24.37
2019-05-30T08:09:08.858Z,24.38
2019-05-30T08:10:08.282Z,24.39
2019-05-30T08:11:09.927Z,24.42
2019-05-30T08:12:07.352Z,24.41
2019-05-30T08:13:06.824Z,24.38
2019-05-30T08:14:06.392Z,24.37
2019-05-30T08:15:05.903Z,24.38
2019-05-30T08:16:05.364Z,24.37
2019-05-30T08:17:04.855Z,24.35
2019-05-30T08:18:04.380Z,24.36
2019-05-30T08:19:03.898Z,24.38
2019-05-30T08:20:03.641Z,24.36
2019-05-30T08:21:03.016Z,24.37
2019-05-30T08:22:02.551Z,24.36
2019-05-30T08:23:02.098Z,24.36
2019-05-30T08:24:01.644Z,24.37
2019-05-30T08:25:01.125Z,24.38
2019-05-30T08:26:00.581Z,24.38
2019-05-30T08:27:00.130Z,24.38
2019-05-30T08:27:59.609Z,24.39
2019-05-30T08:28:59.227Z,24.41
2019-05-30T08:29:58.688Z,24.41
2019-05-30T08:30:58.174Z,24.42
2019-05-30T08:31:57.651Z,24.42
2019-05-30T08:32:57.414Z,24.41
2019-05-30T08:33:56.990Z,24.37
2019-05-30T08:34:56.525Z,24.35
2019-05-30T08:35:56.147Z,24.34
2019-05-30T08:36:55.520Z,24.33
2019-05-30T08:37:55.061Z,24.34
2019-05-30T08:38:54.638Z,24.33
2019-05-30T08:39:54.336Z,24.35
2019-05-30T08:40:53.908Z,24.35
2019-05-30T08:41:53.473Z,24.37
2019-05-30T08:42:53.044Z,24.38
2019-05-30T08:43:52.699Z,24.38
2019-05-30T08:44:52.350Z,24.38
2019-05-30T08:45:51.884Z,24.38
2019-05-30T08:46:51.462Z,24.39
2019-05-30T08:47:51.071Z,24.40
2019-05-30T08:48:50.475Z,24.39
2019-05-30T08:49:49.974Z,24.40
2019-05-30T08:50:49.502Z,24.40
2019-05-30T08:51:49.076Z,24.40
2019-05-30T08:52:48.839Z,24.39
2019-05-30T08:53:48.400Z,24.39
2019-05-30T08:54:48.050Z,24.40
2019-05-30T08:55:47.433Z,24.38
2019-05-30T08:56:46.925Z,24.41
2019-05-30T08:57:46.458Z,24.42
2019-05-30T08:58:45.976Z,24.43
2019-05-30T08:59:45.462Z,24.43
2019-05-30T09:00:45.062Z,24.43
2019-05-30T09:01:45.999Z,24.44
2019-05-30T09:02:45.110Z,24.45
2019-05-30T09:03:44.167Z,24.46
2019-05-30T09:04:43.958Z,24.48
2019-05-30T09:05:57.241Z,24.48
2019-05-30T09:06:42.145Z,24.47
2019-05-30T09:07:42.909Z,24.50
2019-05-30T09:08:42.138Z,24.48
2019-05-30T09:09:40.625Z,24.52
2019-05-30T09:10:40.829Z,24.53
2019-05-30T09:11:40.570Z,24.53
2019-05-30T09:12:42.078Z,24.54
2019-05-30T09:13:40.322Z,24.54
2019-05-30T09:14:39.288Z,24.56
2019-05-30T09:15:39.149Z,24.54
2019-05-30T09:16:37.929Z,24.55
2019-05-30T09:17:38.739Z,24.55
2019-05-30T09:18:39.505Z,24.58
2019-05-30T09:19:37.959Z,24.57
2019-05-30T09:20:37.946Z,24.56
2019-05-30T09:21:36.845Z,24.55
2019-05-30T09:22:35.492Z,24.58
2019-05-30T09:23:34.973Z,24.58
2019-05-30T09:24:34.567Z,24.58
2019-05-30T09:25:34.193Z,24.58
2019-05-30T09:26:33.753Z,24.58
2019-05-30T09:27:33.805Z,24.64
2019-05-30T09:28:33.272Z,24.67
2019-05-30T09:29:32.807Z,24.73
2019-05-30T09:30:32.474Z,24.74
2019-05-30T09:31:32.124Z,24.77
2019-05-30T09:32:31.691Z,24.76
2019-05-30T09:33:31.267Z,24.80
2019-05-30T09:34:30.836Z,24.82
2019-05-30T09:35:30.468Z,24.83
2019-05-30T09:36:30.111Z,24.81
2019-05-30T09:37:29.705Z,24.87
2019-05-30T09:38:29.257Z,24.87
2019-05-30T09:39:29.788Z,24.89
2019-05-30T09:40:28.417Z,24.91
2019-05-30T09:41:28.046Z,24.95
2019-05-30T09:42:27.603Z,24.95
2019-05-30T09:43:27.220Z,24.95
2019-05-30T09:44:26.801Z,24.98
2019-05-30T09:45:26.182Z,25.01
2019-05-30T09:46:25.904Z,25.02
2019-05-30T09:47:25.481Z,25.01
2019-05-30T09:48:25.093Z,25.01
2019-05-30T09:49:24.670Z,25.01
2019-05-30T09:50:24.269Z,25.04
2019-05-30T09:51:23.870Z,25.04
2019-05-30T09:52:23.474Z,25.06
2019-05-30T09:53:23.167Z,25.07
2019-05-30T09:54:22.839Z,25.11
2019-05-30T09:55:22.594Z,25.12
2019-05-30T09:56:22.374Z,25.14
2019-05-30T09:57:26.756Z,25.16
2019-05-30T09:58:25.429Z,25.17
2019-05-30T09:59:25.025Z,25.20
2019-05-30T10:00:24.387Z,25.22
2019-05-30T10:01:24.135Z,25.21
2019-05-30T10:02:23.671Z,25.20
2019-05-30T10:03:23.292Z,25.24
2019-05-30T10:04:22.860Z,25.25
2019-05-30T10:05:24.669Z,25.24
2019-05-30T10:06:29.348Z,25.24
2019-05-30T10:07:21.708Z,25.27
2019-05-30T10:08:21.358Z,25.28
2019-05-30T10:09:20.910Z,25.28
2019-05-30T10:10:20.370Z,25.31
2019-05-30T10:11:19.902Z,25.32
2019-05-30T10:12:19.584Z,25.33
2019-05-30T10:13:19.226Z,25.32
2019-05-30T10:14:18.776Z,25.34
2019-05-30T10:15:18.409Z,25.35
2019-05-30T10:16:18.081Z,25.35
2019-05-30T10:17:17.793Z,25.36
2019-05-30T10:18:17.313Z,25.36
2019-05-30T10:19:16.857Z,25.38
2019-05-30T10:20:16.558Z,25.36
2019-05-30T10:21:19.092Z,25.37
2019-05-30T10:22:17.958Z,25.37
2019-05-30T10:23:17.540Z,25.37
2019-05-30T10:24:17.217Z,25.37
2019-05-30T10:25:19.734Z,25.36
2019-05-30T10:26:18.613Z,25.37
2019-05-30T10:27:18.253Z,25.37
2019-05-30T10:28:17.819Z,25.37
2019-05-30T10:29:20.405Z,25.37
2019-05-30T10:30:19.326Z,25.36
2019-05-30T10:31:18.868Z,25.35
2019-05-30T10:32:18.262Z,25.34
2019-05-30T10:33:18.044Z,25.31
2019-05-30T10:34:17.384Z,25.28
2019-05-30T10:35:18.640Z,25.28
2019-05-30T10:36:20.019Z,25.26
2019-05-30T10:37:17.442Z,25.24
2019-05-30T10:38:19.995Z,25.22
2019-05-30T10:39:16.659Z,25.24
2019-05-30T10:40:16.336Z,25.25
2019-05-30T10:41:15.981Z,25.25
2019-05-30T10:42:15.656Z,25.25
2019-05-30T10:43:15.284Z,25.24
2019-05-30T10:44:14.834Z,25.23
2019-05-30T10:45:14.246Z,25.23
2019-05-30T10:46:13.701Z,25.22
2019-05-30T10:47:17.277Z,25.20
2019-05-30T10:48:16.393Z,25.19
2019-05-30T10:49:15.801Z,25.19
2019-05-30T10:50:15.478Z,25.21
2019-05-30T10:51:15.017Z,25.25
2019-05-30T10:52:14.649Z,25.27
2019-05-30T10:53:14.152Z,25.28
2019-05-30T10:54:13.732Z,25.29
2019-05-30T10:55:13.278Z,25.29
2019-05-30T10:56:12.879Z,25.29
2019-05-30T10:57:12.476Z,25.29
2019-05-30T10:58:11.838Z,25.33
2019-05-30T10:59:11.572Z,25.32
2019-05-30T11:00:11.524Z,25.32
2019-05-30T11:01:10.792Z,25.33
2019-05-30T11:02:10.284Z,25.34
2019-05-30T11:03:09.914Z,25.35
2019-05-30T11:04:09.476Z,25.37
2019-05-30T11:05:09.123Z,25.37
2019-05-30T11:06:08.752Z,25.40
2019-05-30T11:07:11.604Z,25.40
2019-05-30T11:08:07.939Z,25.40
2019-05-30T11:09:07.680Z,25.41
2019-05-30T11:10:12.138Z,25.44
2019-05-30T11:11:10.670Z,25.41
2019-05-30T11:12:10.064Z,25.41
2019-05-30T11:13:09.597Z,25.40
2019-05-30T11:14:09.112Z,25.39
2019-05-30T11:15:08.939Z,25.37
2019-05-30T11:16:08.315Z,25.36
2019-05-30T11:17:07.858Z,25.36
2019-05-30T11:18:07.511Z,25.37
2019-05-30T11:19:07.709Z,25.37
2019-05-30T11:20:06.604Z,25.36
2019-05-30T11:21:06.118Z,25.38
2019-05-30T11:22:05.737Z,25.39
2019-05-30T11:23:10.599Z,25.38
2019-05-30T11:24:09.267Z,25.38
2019-05-30T11:25:08.869Z,25.38
2019-05-30T11:26:08.302Z,25.39
2019-05-30T11:27:13.059Z,25.38
2019-05-30T11:28:11.580Z,25.40
2019-05-30T11:29:11.170Z,25.44
2019-05-30T11:30:15.452Z,25.45
2019-05-30T11:31:14.067Z,25.47
2019-05-30T11:32:13.643Z,25.50
2019-05-30T11:33:17.990Z,25.50
2019-05-30T11:34:16.597Z,25.47
2019-05-30T11:35:20.985Z,25.48
2019-05-30T11:36:19.712Z,25.47
2019-05-30T11:37:19.358Z,25.48
2019-05-30T11:38:18.911Z,25.49
2019-05-30T11:39:18.280Z,25.54
2019-05-30T11:40:17.800Z,25.56
2019-05-30T11:41:17.533Z,25.58
2019-05-30T11:42:17.169Z,25.58
2019-05-30T11:43:16.812Z,25.62
2019-05-30T11:44:16.175Z,25.62
2019-05-30T11:45:15.652Z,25.59
2019-05-30T11:46:15.187Z,25.58
2019-05-30T11:47:14.654Z,25.58
2019-05-30T11:48:14.181Z,25.64
2019-05-30T11:49:13.847Z,25.66
2019-05-30T11:50:13.325Z,25.68
2019-05-30T11:51:12.806Z,25.69
2019-05-30T11:52:12.388Z,25.72
2019-05-30T11:53:11.845Z,25.73
2019-05-30T11:54:11.374Z,25.75
2019-05-30T11:55:10.869Z,25.75
2019-05-30T11:56:10.364Z,25.74
2019-05-30T11:57:09.945Z,25.74
2019-05-30T11:58:09.421Z,25.77
2019-05-30T11:59:08.925Z,25.79
2019-05-30T12:00:08.389Z,25.81
2019-05-30T12:01:07.949Z,25.81
2019-05-30T12:02:07.476Z,25.83
2019-05-30T12:03:06.963Z,25.85
2019-05-30T12:04:06.534Z,25.87
2019-05-30T12:05:06.025Z,25.88
2019-05-30T12:06:05.604Z,25.88
2019-05-30T12:07:05.126Z,25.92
2019-05-30T12:08:04.785Z,25.93
2019-05-30T12:09:04.207Z,25.93
2019-05-30T12:10:03.769Z,25.91
2019-05-30T12:11:03.382Z,25.93
2019-05-30T12:12:02.817Z,25.93
2019-05-30T12:13:02.353Z,25.95
2019-05-30T12:14:01.807Z,25.94
2019-05-30T12:15:01.757Z,25.97
2019-05-30T12:16:01.810Z,25.97
2019-05-30T12:17:01.509Z,25.98
2019-05-30T12:17:59.890Z,26.00
2019-05-30T12:18:59.700Z,26.02
2019-05-30T12:19:59.605Z,26.03
2019-05-30T12:20:59.762Z,26.03
2019-05-30T12:21:57.924Z,26.00
2019-05-30T12:22:57.961Z,26.01
2019-05-30T12:23:58.105Z,26.01
2019-05-30T12:25:02.722Z,26.00
2019-05-30T12:26:04.770Z,25.98
2019-05-30T12:27:03.267Z,26.01
2019-05-30T12:28:04.359Z,26.00
2019-05-30T12:29:02.385Z,26.02
2019-05-30T12:30:02.663Z,26.02
2019-05-30T12:31:05.101Z,26.06
2019-05-30T12:32:02.208Z,26.07
2019-05-30T12:33:00.495Z,26.07
2019-05-30T12:34:00.536Z,26.07
2019-05-30T12:35:00.495Z,26.07
2019-05-30T12:35:59.115Z,26.09
2019-05-30T12:36:58.743Z,26.04
2019-05-30T12:38:01.608Z,26.06
2019-05-30T12:38:58.418Z,26.05
2019-05-30T12:39:57.141Z,26.07
2019-05-30T12:40:56.744Z,26.08
2019-05-30T12:41:56.871Z,26.09
2019-05-30T12:42:58.925Z,26.09
2019-05-30T12:43:55.229Z,26.09
2019-05-30T12:44:55.021Z,26.10
2019-05-30T12:45:54.903Z,26.09
2019-05-30T12:46:55.444Z,26.11
2019-05-30T12:47:53.405Z,26.10